Time;durP1;ratioP1;P1;durP2;ratioP2;P2;SDS_P1;SDS_P2;PMS_P1;PMS_P2;Temp;Humidity;BMP_temperature;BMP_pressure;BME280_temperature;BME280_humidity;BME280_pressure;Samples;Min_cycle;Max_cycle;Signal;HPM_P1;HPM_P2
2022/05/28 00:00:59;;;;;;;10.90;7.55;;;;;;;17.42;90.93;96655.50;4965447;28;20058;-67
2022/05/28 00:03:28;;;;;;;8.82;7.95;;;;;;;17.93;90.89;96730.72;4981494;28;20062;-65
2022/05/28 00:05:56;;;;;;;9.50;8.27;;;;;;;17.48;91.62;96693.81;4966220;28;20066;-66
2022/05/28 00:08:24;;;;;;;11.70;7.72;;;;;;;17.85;91.61;96729.25;4967174;28;20447;-67
2022/05/28 00:10:54;;;;;;;11.30;8.55;;;;;;;17.84;91.22;96727.66;4966321;28;20055;-67
2022/05/28 00:13:20;;;;;;;9.68;8.68;;;;;;;17.53;90.90;96672.97;4966579;28;20449;-67
2022/05/28 00:15:47;;;;;;;13.57;8.50;;;;;;;17.56;91.16;96683.31;4981272;28;20054;-66
2022/05/28 00:18:14;;;;;;;10.20;8.55;;;;;;;17.62;91.33;96690.00;4981704;28;20361;-66
2022/05/28 00:20:41;;;;;;;9.15;8.25;;;;;;;17.81;91.67;96711.72;4998739;28;20536;-67
2022/05/28 00:23:08;;;;;;;9.30;8.25;;;;;;;17.32;91.62;96639.66;4986223;28;20485;-66
2022/05/28 00:25:35;;;;;;;10.60;8.43;;;;;;;17.12;91.84;96614.34;4985806;28;20066;-66
2022/05/28 00:28:01;;;;;;;11.73;8.68;;;;;;;17.73;91.51;96711.03;5000958;28;20058;-66
2022/05/28 00:30:28;;;;;;;10.55;8.80;;;;;;;17.64;91.98;96707.19;5000697;28;20062;-67
2022/05/28 00:32:55;;;;;;;9.63;8.55;;;;;;;17.48;92.70;96709.84;4986136;28;20054;-66
2022/05/28 00:35:21;;;;;;;13.43;8.38;;;;;;;17.50;92.93;96702.59;4985815;28;20047;-67
2022/05/28 00:37:48;;;;;;;10.80;8.63;;;;;;;17.43;94.02;96702.69;4986628;28;20050;-67
2022/05/28 00:40:21;;;;;;;10.40;7.90;;;;;;;17.50;92.50;96707.38;4985548;28;20054;-67
2022/05/28 00:42:51;;;;;;;10.70;8.25;;;;;;;17.35;93.20;96708.81;4985976;28;20579;-67
2022/05/28 00:45:18;;;;;;;9.93;8.93;;;;;;;17.27;94.34;96704.53;4984062;28;20065;-67
2022/05/28 00:47:51;;;;;;;10.43;8.63;;;;;;;17.29;94.49;96716.09;5000572;28;20050;-66
2022/05/28 00:50:19;;;;;;;9.75;8.63;;;;;;;17.26;94.21;96703.72;4985387;28;20065;-66
2022/05/28 00:52:46;;;;;;;12.20;8.35;;;;;;;17.25;94.01;96701.34;5000338;28;20493;-66
2022/05/28 00:55:15;;;;;;;9.68;8.45;;;;;;;17.23;94.52;96698.19;5000190;28;20327;-66
2022/05/28 00:57:44;;;;;;;9.85;8.57;;;;;;;17.19;95.17;96703.03;4985981;28;20058;-67
2022/05/28 01:00:15;;;;;;;11.68;8.95;;;;;;;16.83;95.25;96634.78;4985346;28;20065;-67
2022/05/28 01:03:02;;;;;;;9.65;8.38;;;;;;;17.25;95.53;96690.94;4985358;28;20095;-67
2022/05/28 01:05:38;;;;;;;9.30;7.85;;;;;;;17.20;94.44;96704.63;4999792;28;20058;-67
2022/05/28 01:08:15;;;;;;;9.70;8.35;;;;;;;17.20;93.92;96694.22;4985217;28;20065;-68
2022/05/28 01:10:50;;;;;;;10.73;8.07;;;;;;;17.21;94.38;96695.81;5000001;28;20063;-67
2022/05/28 01:13:23;;;;;;;10.52;8.50;;;;;;;16.74;94.86;96626.13;4984936;28;20070;-67
2022/05/28 01:15:57;;;;;;;9.20;8.18;;;;;;;17.32;94.23;96701.25;4985026;28;20516;-66
2022/05/28 01:18:39;;;;;;;9.80;8.40;;;;;;;16.99;94.24;96676.94;5000062;28;20265;-66
2022/05/28 01:21:10;;;;;;;12.38;8.93;;;;;;;16.27;94.03;96570.00;4960672;28;20062;-66
2022/05/28 01:23:46;;;;;;;12.80;8.70;;;;;;;16.38;94.53;96587.44;4946529;28;20047;-66
2022/05/28 01:26:23;;;;;;;9.20;8.30;;;;;;;16.99;95.49;96693.72;4945936;29;20063;-66
2022/05/28 01:28:58;;;;;;;9.98;8.48;;;;;;;16.91;95.45;96681.03;4946147;28;20438;-66
2022/05/28 01:31:28;;;;;;;9.88;8.77;;;;;;;16.71;94.90;96643.75;4946301;28;20055;-66
2022/05/28 01:33:55;;;;;;;10.75;8.65;;;;;;;16.68;95.09;96622.22;4946009;28;20149;-66
2022/05/28 01:36:24;;;;;;;10.45;8.95;;;;;;;17.09;94.67;96692.78;4945456;28;20466;-67
2022/05/28 01:38:53;;;;;;;12.38;9.10;;;;;;;16.97;95.12;96690.56;4946219;28;20078;-66
2022/05/28 01:41:20;;;;;;;9.55;8.65;;;;;;;16.50;95.81;96634.41;4945723;28;20051;-66
2022/05/28 01:43:49;;;;;;;13.63;9.20;;;;;;;16.64;96.09;96656.59;4945697;28;20054;-66
2022/05/28 01:46:18;;;;;;;11.63;9.07;;;;;;;16.61;95.34;96654.66;4943252;28;20059;-66
2022/05/28 01:48:48;;;;;;;11.27;9.10;;;;;;;16.89;95.77;96686.25;4946449;28;20118;-66
2022/05/28 01:51:16;;;;;;;13.32;9.10;;;;;;;16.88;94.94;96704.28;4960372;28;20047;-66
2022/05/28 01:56:31;;;;;;;24.00;13.95;;;;;;;16.44;100.00;96669.66;4946031;29;20055;-66
2022/05/28 01:58:57;;;;;;;18.38;12.23;;;;;;;16.50;99.95;96679.16;4945696;28;20054;-66
2022/05/28 02:01:24;;;;;;;17.00;10.68;;;;;;;16.05;98.25;96590.22;4944420;29;20070;-67
2022/05/28 02:03:56;;;;;;;10.73;9.45;;;;;;;16.60;98.25;96681.03;4944605;29;20047;-67
2022/05/28 02:06:22;;;;;;;10.73;9.57;;;;;;;16.54;98.79;96671.53;4945974;28;20058;-68
2022/05/28 02:08:50;;;;;;;10.25;9.25;;;;;;;16.40;99.42;96674.47;4946274;28;20433;-66
2022/05/28 02:11:18;;;;;;;15.30;9.75;;;;;;;16.42;99.80;96672.03;4945229;28;20058;-66
2022/05/28 02:14:08;;;;;;;14.02;9.63;;;;;;;16.17;98.80;96632.41;4945078;28;20478;-66
2022/05/28 02:16:51;;;;;;;14.88;9.32;;;;;;;16.46;99.41;96684.00;4945047;28;20070;-66
2022/05/28 02:19:25;;;;;;;;;;;;;;;16.50;99.13;96681.94;4966280;28;20085;-66
2022/05/28 02:22:04;;;;;;;14.20;10.07;;;;;;;16.17;99.74;96654.75;4979050;28;20460;-66
2022/05/28 02:24:39;;;;;;;12.35;9.93;;;;;;;16.20;100.00;96667.88;4963659;28;20174;-66
2022/05/28 02:27:10;;;;;;;11.57;8.32;;;;;;;16.30;99.76;96663.38;4964699;28;20065;-67
2022/05/28 02:29:37;;;;;;;13.05;8.88;;;;;;;16.21;98.65;96647.13;4964950;28;20061;-66
2022/05/28 02:32:22;;;;;;;11.10;9.52;;;;;;;16.54;98.33;96693.91;4964659;28;20061;-67
2022/05/28 02:34:50;;;;;;;15.85;9.30;;;;;;;16.52;98.50;96704.69;4964536;28;20067;-67
2022/05/28 02:37:24;;;;;;;18.67;10.45;;;;;;;16.58;97.26;96680.66;4964256;28;20518;-66
2022/05/28 02:39:51;;;;;;;13.82;11.45;;;;;;;16.19;97.91;96649.53;4964455;28;20055;-67
2022/05/28 02:42:18;;;;;;;19.13;11.75;;;;;;;16.15;97.78;96651.59;4978968;28;20058;-66
2022/05/28 02:44:46;;;;;;;15.23;10.77;;;;;;;16.41;97.88;96694.81;4979230;28;20575;-66
2022/05/28 02:47:12;;;;;;;10.95;9.48;;;;;;;16.49;98.12;96685.16;4963265;28;20524;-66
2022/05/28 02:49:39;;;;;;;12.93;10.00;;;;;;;16.21;99.01;96663.91;4965103;28;20066;-66
2022/05/28 02:52:06;;;;;;;11.88;10.60;;;;;;;16.47;99.16;96688.38;4964361;28;20059;-67
2022/05/28 02:54:34;;;;;;;12.32;9.70;;;;;;;16.00;100.00;96622.22;4963593;28;20051;-66
2022/05/28 02:57:02;;;;;;;14.00;9.25;;;;;;;16.51;98.72;96669.56;4966665;28;20050;-67
2022/05/28 02:59:29;;;;;;;11.10;9.18;;;;;;;15.98;98.23;96630.22;4968359;28;20506;-66
2022/05/28 03:01:56;;;;;;;12.55;9.15;;;;;;;16.35;97.58;96680.50;4982678;28;20506;-66
2022/05/28 03:04:23;;;;;;;13.00;8.93;;;;;;;16.43;96.53;96661.66;4968331;28;20069;-66
2022/05/28 03:06:52;;;;;;;12.85;9.48;;;;;;;15.91;95.26;96585.59;4982474;28;20086;-67
2022/05/28 03:09:18;;;;;;;12.63;8.90;;;;;;;16.46;95.86;96686.81;4983176;28;20077;-67
2022/05/28 03:11:45;;;;;;;10.77;8.90;;;;;;;16.57;96.68;96695.88;4968215;28;20607;-65
2022/05/28 03:14:12;;;;;;;12.52;9.93;;;;;;;16.63;96.47;96710.97;4966531;28;20054;-66
2022/05/28 03:16:39;;;;;;;16.73;13.25;;;;;;;16.23;95.93;96625.13;4967870;28;20094;-66
2022/05/28 03:19:06;;;;;;;18.38;11.90;;;;;;;16.77;95.80;96703.63;4963754;28;20098;-65
2022/05/28 03:21:33;;;;;;;19.05;13.95;;;;;;;16.80;95.25;96708.38;4947972;29;20565;-66
2022/05/28 03:24:00;;;;;;;12.55;10.63;;;;;;;16.94;95.18;96703.41;4948398;28;20055;-66
2022/05/28 03:26:28;;;;;;;12.18;9.10;;;;;;;17.05;94.83;96703.22;4948328;28;20179;-66
2022/05/28 03:28:56;;;;;;;9.50;8.55;;;;;;;16.86;93.75;96678.72;4963122;28;20066;-66
2022/05/28 03:31:25;;;;;;;11.55;9.18;;;;;;;16.87;93.29;96658.72;4947975;28;20489;-66
2022/05/28 03:33:52;;;;;;;9.57;8.63;;;;;;;16.88;93.15;96653.91;4946737;29;20051;-66
2022/05/28 03:36:20;;;;;;;11.32;8.93;;;;;;;17.38;92.90;96705.16;4948050;28;20063;-66
2022/05/28 03:38:46;;;;;;;9.85;8.85;;;;;;;17.04;91.96;96668.09;4948431;28;20055;-67
2022/05/28 03:41:13;;;;;;;14.88;9.85;;;;;;;17.26;92.27;96691.75;4962682;28;20474;-66
2022/05/28 03:43:40;;;;;;;11.20;9.50;;;;;;;17.21;92.33;96670.63;4962707;28;20055;-67
2022/05/28 03:46:19;;;;;;;12.15;9.25;;;;;;;17.46;92.77;96695.47;4946592;29;20051;-66
2022/05/28 03:48:46;;;;;;;11.73;9.25;;;;;;;17.31;92.00;96660.47;4946720;29;20129;-66
2022/05/28 03:51:13;;;;;;;13.48;10.13;;;;;;;17.57;93.20;96707.28;4947688;28;20055;-66
2022/05/28 03:53:39;;;;;;;10.98;8.45;;;;;;;17.63;91.70;96711.19;4962665;28;20070;-66
2022/05/28 03:56:07;;;;;;;10.70;8.65;;;;;;;17.67;91.20;96706.34;4946676;29;20059;-66
2022/05/28 03:58:33;;;;;;;12.32;10.20;;;;;;;17.57;90.47;96696.09;4948133;28;20066;-66
2022/05/28 04:01:00;;;;;;;16.48;11.13;;;;;;;17.82;89.64;96724.50;4961991;28;20055;-67
2022/05/28 04:03:27;;;;;;;14.85;11.27;;;;;;;17.73;88.57;96722.25;4947345;28;20181;-66
2022/05/28 04:05:53;;;;;;;13.77;10.38;;;;;;;17.59;88.82;96711.25;4945590;28;20081;-66
2022/05/28 04:08:20;;;;;;;13.68;10.32;;;;;;;17.67;89.21;96723.16;4945107;28;20058;-66
2022/05/28 04:10:47;;;;;;;10.45;9.35;;;;;;;17.81;88.34;96722.91;4947261;28;20058;-67
2022/05/28 04:13:13;;;;;;;15.25;10.48;;;;;;;17.63;89.14;96733.59;4947616;28;20841;-66
2022/05/28 04:15:40;;;;;;;10.65;9.57;;;;;;;16.53;95.65;96672.72;4946776;29;20059;-65
2022/05/28 04:18:07;;;;;;;12.55;10.48;;;;;;;17.25;93.47;96751.72;4946968;28;20818;-67
2022/05/28 04:20:34;;;;;;;13.40;10.38;;;;;;;17.39;92.83;96745.94;4976834;28;20050;-67
2022/05/28 04:23:01;;;;;;;17.42;10.77;;;;;;;17.29;94.12;96744.88;4980922;28;20571;-67
2022/05/28 04:25:28;;;;;;;12.90;11.07;;;;;;;17.55;94.31;96737.72;4966043;28;20438;-67
2022/05/28 04:27:54;;;;;;;13.85;9.70;;;;;;;17.71;91.89;96713.47;4965058;28;20054;-68
2022/05/28 04:30:21;;;;;;;13.57;9.05;;;;;;;17.94;90.49;96721.09;4981247;28;20434;-67
2022/05/28 04:32:48;;;;;;;12.43;9.23;;;;;;;18.22;90.09;96734.63;4981251;28;20141;-67
2022/05/28 04:35:15;;;;;;;10.57;8.50;;;;;;;18.38;89.04;96736.75;4966116;28;20438;-67
2022/05/28 04:37:42;;;;;;;14.63;9.93;;;;;;;18.57;87.26;96752.84;4964829;28;20066;-66
2022/05/28 04:40:10;;;;;;;12.77;11.38;;;;;;;18.60;86.88;96732.34;4964954;28;20059;-67
2022/05/28 04:42:37;;;;;;;14.13;12.63;;;;;;;18.60;87.63;96724.72;4980991;28;20054;-66
2022/05/28 04:45:04;;;;;;;12.77;10.40;;;;;;;18.56;87.38;96700.78;4980798;28;20402;-66
2022/05/28 04:47:31;;;;;;;11.32;10.13;;;;;;;18.87;87.16;96728.19;4966364;28;20058;-67
2022/05/28 04:49:57;;;;;;;11.35;10.20;;;;;;;18.68;86.80;96681.28;4981576;28;20062;-65
2022/05/28 04:52:24;;;;;;;13.02;10.18;;;;;;;18.87;86.56;96679.69;4964539;28;20063;-65
2022/05/28 04:54:51;;;;;;;11.93;10.07;;;;;;;19.02;87.39;96703.41;4966187;28;20070;-62
2022/05/28 04:57:17;;;;;;;15.82;9.05;;;;;;;19.08;87.37;96705.25;4965990;28;20105;-62
2022/05/28 04:59:45;;;;;;;13.18;9.27;;;;;;;19.10;88.43;96714.06;4966025;28;20069;-62
2022/05/28 05:02:12;;;;;;;11.75;9.85;;;;;;;19.30;87.03;96700.78;4965748;28;20051;-64
2022/05/28 05:04:39;;;;;;;16.25;10.20;;;;;;;19.00;87.40;96664.53;4965729;28;20062;-61
2022/05/28 05:07:05;;;;;;;15.65;9.82;;;;;;;19.34;88.25;96695.91;4980604;28;20069;-63
2022/05/28 05:09:32;;;;;;;14.45;9.93;;;;;;;19.43;87.96;96696.09;4965808;28;20058;-61
2022/05/28 05:11:59;;;;;;;17.63;11.82;;;;;;;19.71;86.12;96702.25;4965391;28;20054;-62
2022/05/28 05:14:26;;;;;;;13.23;10.05;;;;;;;19.07;91.05;96703.69;4966196;28;20129;-61
2022/05/28 05:16:52;;;;;;;12.85;10.18;;;;;;;19.42;89.88;96708.56;4965421;28;20419;-61
2022/05/28 05:19:19;;;;;;;13.32;10.77;;;;;;;19.57;89.27;96727.91;4965234;28;20054;-62
2022/05/28 05:21:46;;;;;;;11.70;10.50;;;;;;;19.76;90.09;96727.81;4965707;28;20055;-61
2022/05/28 05:24:12;;;;;;;15.15;10.18;;;;;;;19.84;85.64;96667.38;4980089;28;20588;-61
2022/05/28 05:26:39;;;;;;;11.43;9.80;;;;;;;20.03;86.03;96707.91;4965426;28;20557;-62
2022/05/28 05:29:06;;;;;;;11.88;10.07;;;;;;;20.21;84.58;96674.50;4965249;28;20066;-61
2022/05/28 05:31:32;;;;;;;15.02;9.52;;;;;;;20.43;82.17;96653.78;4964870;28;20066;-60
2022/05/28 05:33:59;;;;;;;13.75;9.93;;;;;;;21.26;80.41;96705.28;4965209;28;20051;-61
2022/05/28 05:36:26;;;;;;;10.65;9.55;;;;;;;21.52;78.26;96712.53;4965128;28;20077;-62
2022/05/28 05:38:52;;;;;;;14.20;10.48;;;;;;;20.84;81.16;96692.41;4964604;28;20053;-60
2022/05/28 05:41:19;;;;;;;12.57;9.77;;;;;;;21.40;78.72;96730.22;4965101;28;20067;-63
2022/05/28 05:43:46;;;;;;;14.82;10.55;;;;;;;21.41;77.52;96720.53;4979927;28;20046;-60
2022/05/28 05:46:13;;;;;;;15.50;10.38;;;;;;;21.45;77.14;96711.97;4979692;28;20057;-63
2022/05/28 05:48:42;;;;;;;11.52;10.43;;;;;;;21.72;74.75;96665.16;4979951;28;20057;-63
2022/05/28 05:51:13;;;;;;;12.88;9.45;;;;;;;22.15;74.27;96707.66;4979533;28;20046;-60
2022/05/28 05:53:40;;;;;;;10.15;8.43;;;;;;;22.43;72.68;96715.16;4963847;28;20059;-62
2022/05/28 05:56:08;;;;;;;9.98;8.88;;;;;;;22.54;72.23;96702.75;4964904;28;20517;-62
2022/05/28 05:58:35;;;;;;;10.50;9.20;;;;;;;22.43;72.14;96695.41;4964753;28;20236;-64
2022/05/28 06:01:03;;;;;;;10.80;9.73;;;;;;;22.89;71.62;96732.53;4963144;28;20057;-61
2022/05/28 06:03:31;;;;;;;12.73;9.15;;;;;;;22.78;71.13;96664.34;4965297;28;20061;-61
2022/05/28 06:06:04;;;;;;;10.35;9.32;;;;;;;23.52;68.92;96721.69;4964795;28;20473;-61
2022/05/28 06:08:31;;;;;;;10.35;8.70;;;;;;;23.62;67.99;96726.91;4965281;28;20160;-61
2022/05/28 06:10:58;;;;;;;11.30;9.80;;;;;;;23.89;67.02;96723.41;4951941;28;20055;-63
2022/05/28 06:13:25;;;;;;;9.93;8.93;;;;;;;23.88;65.71;96704.88;4963504;28;20055;-63
2022/05/28 06:15:51;;;;;;;9.30;8.45;;;;;;;24.18;64.72;96734.41;4948866;28;20513;-61
2022/05/28 06:18:18;;;;;;;10.07;9.07;;;;;;;24.07;65.24;96734.06;4955294;28;20062;-65
2022/05/28 06:20:44;;;;;;;10.20;8.82;;;;;;;23.97;65.32;96730.41;4944209;28;20059;-59
2022/05/28 06:23:11;;;;;;;10.07;8.95;;;;;;;24.27;63.25;96729.56;4933155;28;20525;-58
2022/05/28 06:25:38;;;;;;;12.20;9.00;;;;;;;24.12;63.07;96649.31;4939806;28;20062;-62
2022/05/28 06:28:05;;;;;;;13.13;9.50;;;;;;;24.65;62.83;96676.09;4943699;28;20466;-63
2022/05/28 06:30:32;;;;;;;10.65;8.68;;;;;;;25.11;61.94;96720.22;4947109;28;20051;-59
2022/05/28 06:32:59;;;;;;;27.42;16.02;;;;;;;25.13;61.71;96714.06;4960131;28;20051;-60
2022/05/28 06:35:25;;;;;;;26.00;11.77;;;;;;;25.04;61.82;96706.34;4946386;28;20055;-56
2022/05/28 06:37:52;;;;;;;12.77;9.63;;;;;;;24.56;63.79;96703.66;4944357;28;20078;-56
2022/05/28 06:40:19;;;;;;;10.07;9.07;;;;;;;23.77;66.20;96687.53;4946595;28;20059;-61
2022/05/28 06:42:46;;;;;;;16.15;10.63;;;;;;;23.60;66.76;96638.91;4954876;28;20065;-59
2022/05/28 06:45:16;;;;;;;11.65;10.10;;;;;;;23.72;69.97;96657.84;4948264;28;20105;-62
2022/05/28 06:47:44;;;;;;;15.45;10.63;;;;;;;23.54;70.37;96668.25;4933920;28;20047;-59
2022/05/28 06:53:00;;;;;;;13.55;9.40;;;;;;;23.05;73.71;96709.72;4951577;28;20580;-60
2022/05/28 06:55:27;;;;;;;15.20;9.27;;;;;;;22.97;74.22;96697.13;4951381;28;20066;-60
2022/05/28 06:57:53;;;;;;;11.18;9.63;;;;;;;22.98;74.59;96701.53;4948034;28;20536;-60
2022/05/28 07:00:20;;;;;;;15.07;10.50;;;;;;;23.09;75.26;96710.38;4948507;28;20051;-60
2022/05/28 07:02:47;;;;;;;16.40;11.48;;;;;;;22.99;75.28;96689.75;4951027;28;20051;-63
2022/05/28 07:05:15;;;;;;;18.58;11.55;;;;;;;22.49;74.25;96617.34;4950582;28;20047;-63
2022/05/28 07:07:42;;;;;;;15.98;10.40;;;;;;;23.13;74.70;96677.91;4951764;28;20051;-62
2022/05/28 07:10:10;;;;;;;14.07;10.48;;;;;;;23.08;76.22;96689.03;4947394;28;20495;-60
2022/05/28 07:12:37;;;;;;;13.95;12.15;;;;;;;23.18;77.26;96690.66;4958431;28;20085;-60
2022/05/28 07:15:04;;;;;;;11.20;10.10;;;;;;;23.56;75.84;96688.38;4948202;28;20063;-64
2022/05/28 07:17:31;;;;;;;11.38;10.20;;;;;;;23.63;74.02;96662.66;4945639;28;20059;-57
2022/05/28 07:19:57;;;;;;;11.88;10.00;;;;;;;24.01;73.83;96699.13;4941268;28;20051;-63
2022/05/28 07:22:24;;;;;;;12.93;9.57;;;;;;;24.34;72.68;96698.13;4947553;28;20047;-66
2022/05/28 07:24:51;;;;;;;11.48;9.57;;;;;;;24.45;71.68;96680.66;4947685;28;20165;-58
2022/05/28 07:27:18;;;;;;;10.88;9.65;;;;;;;24.81;70.68;96695.66;4939946;28;20140;-59
2022/05/28 07:29:45;;;;;;;11.15;9.77;;;;;;;24.71;70.29;96682.75;4947748;28;20066;-60
2022/05/28 07:32:12;;;;;;;11.20;9.80;;;;;;;24.81;70.80;96690.00;4948315;28;20589;-63
2022/05/28 07:34:39;;;;;;;17.20;10.00;;;;;;;24.73;70.68;96662.44;4947144;28;20544;-57
2022/05/28 07:37:05;;;;;;;14.05;9.70;;;;;;;24.61;71.77;96683.97;4947001;28;20070;-57
2022/05/28 07:39:32;;;;;;;14.80;9.25;;;;;;;24.40;72.77;96667.13;4947538;28;20054;-57
2022/05/28 07:42:01;;;;;;;14.60;10.52;;;;;;;23.91;73.27;96619.06;4946499;28;20062;-57
2022/05/28 07:44:28;;;;;;;13.45;9.60;;;;;;;23.76;74.82;96598.25;4947359;28;20055;-60
2022/05/28 07:46:55;;;;;;;16.10;9.48;;;;;;;23.64;78.85;96628.25;4950089;28;20467;-59
2022/05/28 07:49:21;;;;;;;19.42;12.23;;;;;;;23.26;81.97;96624.16;4962050;28;20055;-59
2022/05/28 07:51:49;;;;;;;15.77;10.93;;;;;;;22.69;82.77;96573.91;4951038;28;20325;-60
2022/05/28 07:54:16;;;;;;;13.93;10.23;;;;;;;22.56;83.97;96592.97;4947466;28;20085;-58
2022/05/28 07:56:43;;;;;;;16.15;10.48;;;;;;;22.55;88.88;96591.38;4946544;28;20051;-64
2022/05/28 07:59:09;;;;;;;12.73;11.13;;;;;;;22.46;91.63;96539.22;4947227;28;20055;-62
2022/05/28 08:01:39;;;;;;;16.38;10.63;;;;;;;23.18;87.16;96620.00;4929828;28;20052;-63
2022/05/28 08:04:07;;;;;;;15.90;10.48;;;;;;;23.35;85.40;96615.72;4946788;28;20067;-59
2022/05/28 08:06:34;;;;;;;12.77;10.32;;;;;;;23.24;85.08;96618.16;4942183;28;20446;-59
2022/05/28 08:09:01;;;;;;;13.40;10.60;;;;;;;23.28;85.43;96650.72;4929275;28;20064;-61
2022/05/28 08:11:28;;;;;;;12.98;10.75;;;;;;;23.28;83.04;96582.09;4945121;28;20078;-65
2022/05/28 08:13:55;;;;;;;34.33;12.38;;;;;;;23.13;78.53;96479.31;4942353;28;20063;-60
2022/05/28 08:16:22;;;;;;;13.02;11.70;;;;;;;24.70;74.15;96629.41;4944202;28;20250;-64
2022/05/28 08:18:50;;;;;;;10.85;9.68;;;;;;;24.87;73.47;96611.59;4960099;28;20063;-61
2022/05/28 08:24:03;;;;;;;16.65;11.25;;;;;;;25.18;71.69;96611.38;4942627;28;20066;-60
2022/05/28 08:26:30;;;;;;;13.90;10.02;;;;;;;25.85;69.41;96610.94;4944371;28;20062;-63
2022/05/28 08:28:57;;;;;;;12.52;9.88;;;;;;;24.45;65.80;96374.81;4941429;28;20511;-64
2022/05/28 08:31:24;;;;;;;14.45;10.27;;;;;;;25.80;67.26;96586.06;4941820;28;20052;-64
2022/05/28 08:33:51;;;;;;;11.52;9.07;;;;;;;26.10;63.92;96616.16;4942313;28;20086;-62
2022/05/28 08:36:19;;;;;;;12.80;10.05;;;;;;;26.32;63.52;96571.97;4941806;29;20438;-60
2022/05/28 08:38:46;;;;;;;11.75;8.38;;;;;;;26.79;59.91;96539.88;4941386;28;20062;-59
2022/05/28 08:41:15;;;;;;;15.23;10.10;;;;;;;27.47;58.85;96598.22;4941210;28;20821;-59
2022/05/28 08:43:53;;;;;;;11.20;10.20;;;;;;;26.91;60.15;96550.16;4942355;28;20062;-66
2022/05/28 08:46:23;;;;;;;12.50;9.57;;;;;;;27.27;59.19;96605.88;4959651;28;20065;-60
2022/05/28 08:48:53;;;;;;;11.00;8.68;;;;;;;26.99;55.18;96537.09;4943518;28;20585;-58
2022/05/28 08:51:43;;;;;;;14.43;8.48;;;;;;;27.45;53.07;96566.63;4943268;28;20055;-59
2022/05/28 08:54:19;;;;;;;11.82;8.07;;;;;;;27.73;53.10;96587.75;4942280;28;20114;-64
2022/05/28 08:56:49;;;;;;;9.40;8.48;;;;;;;27.74;52.42;96589.28;4956655;28;20489;-58
2022/05/28 08:59:37;;;;;;;10.05;8.38;;;;;;;27.79;50.73;96585.75;4941748;28;20066;-66
2022/05/28 09:02:17;;;;;;;10.02;7.63;;;;;;;27.64;51.01;96596.41;4955330;28;20055;-61
2022/05/28 09:04:45;;;;;;;9.23;7.18;;;;;;;27.57;51.56;96582.56;4941181;29;20055;-62
2022/05/28 09:07:14;;;;;;;9.27;8.25;;;;;;;27.61;51.86;96588.84;4943308;28;20407;-61
2022/05/28 09:09:48;;;;;;;10.63;8.23;;;;;;;27.74;51.00;96583.59;4957317;28;20066;-57
2022/05/28 09:12:52;;;;;;;14.00;7.97;;;;;;;27.97;51.02;96579.84;4956262;28;20054;-59
2022/05/28 09:15:19;;;;;;;8.90;8.13;;;;;;;28.07;50.46;96543.47;4940741;28;20066;-63
2022/05/28 09:17:50;;;;;;;13.73;8.27;;;;;;;28.17;48.62;96485.84;4937382;29;20059;-59
2022/05/28 09:20:21;;;;;;;8.85;8.02;;;;;;;28.61;47.35;96524.69;4941070;28;20577;-60
2022/05/28 09:22:48;;;;;;;13.57;8.18;;;;;;;28.53;46.83;96563.47;4944741;28;20525;-64
2022/05/28 09:25:22;;;;;;;10.90;8.10;;;;;;;28.52;46.95;96493.50;4944998;28;20067;-58
2022/05/28 09:27:56;;;;;;;9.60;7.72;;;;;;;28.98;45.06;96566.31;4949267;28;20062;-58
2022/05/28 09:30:40;;;;;;;11.07;7.47;;;;;;;29.04;44.58;96557.78;4944963;28;20081;-62
2022/05/28 09:33:38;;;;;;;11.63;7.50;;;;;;;29.03;44.00;96556.22;4945346;28;20059;-59
2022/05/28 09:36:14;;;;;;;13.10;7.80;;;;;;;28.98;44.22;96525.56;4962064;28;20445;-60
2022/05/28 09:39:01;;;;;;;15.88;7.53;;;;;;;28.97;44.67;96541.13;4946115;28;20055;-62
2022/05/28 09:41:55;;;;;;;8.90;6.82;;;;;;;29.13;44.51;96554.81;4945472;28;20054;-59
2022/05/28 09:44:29;;;;;;;16.00;8.40;;;;;;;29.20;45.27;96542.91;4944925;28;20062;-60
2022/05/28 09:47:07;;;;;;;9.20;7.90;;;;;;;29.29;45.26;96522.78;4944346;28;20070;-62
2022/05/28 09:49:34;;;;;;;8.52;7.65;;;;;;;29.34;45.05;96542.78;4944294;28;20063;-61
2022/05/28 09:52:10;;;;;;;10.02;7.40;;;;;;;28.95;41.71;96538.00;4944246;28;20055;-62
2022/05/28 09:54:38;;;;;;;14.98;8.65;;;;;;;28.49;42.89;96562.91;4946149;28;20047;-60
2022/05/28 09:57:11;;;;;;;10.75;7.00;;;;;;;28.56;43.69;96539.69;4946364;28;20522;-61
2022/05/28 09:59:44;;;;;;;14.90;6.90;;;;;;;28.91;41.05;96543.16;4943703;28;20066;-61
2022/05/28 10:02:27;;;;;;;123.32;16.35;;;;;;;29.00;40.14;96540.13;4943923;28;20498;-62
2022/05/28 10:05:09;;;;;;;38.05;8.73;;;;;;;28.73;40.99;96540.63;4960444;28;20077;-61
2022/05/28 10:07:42;;;;;;;11.13;6.95;;;;;;;28.76;41.95;96525.38;4947634;28;20062;-63
2022/05/28 10:10:31;;;;;;;11.07;7.28;;;;;;;28.60;41.67;96488.91;4957519;28;20438;-60
2022/05/28 10:13:08;;;;;;;20.10;7.72;;;;;;;28.95;40.92;96538.78;4961978;28;20054;-59
2022/05/28 10:15:45;;;;;;;8.98;7.55;;;;;;;28.62;40.26;96477.78;4978981;28;20055;-59
2022/05/28 10:18:17;;;;;;;17.35;7.47;;;;;;;28.80;40.23;96497.41;4964403;28;20062;-62
2022/05/28 10:20:57;;;;;;;12.00;7.07;;;;;;;29.11;40.19;96531.69;4964423;28;20059;-59
2022/05/28 10:23:24;;;;;;;26.55;8.63;;;;;;;28.91;40.54;96483.25;4964365;28;20069;-62
2022/05/28 10:25:51;;;;;;;13.18;7.00;;;;;;;29.34;41.22;96504.88;4964383;28;20061;-59
2022/05/28 10:28:40;;;;;;;27.38;9.50;;;;;;;29.27;42.40;96486.19;4964641;28;20153;-62
2022/05/28 10:31:16;;;;;;;8.68;7.85;;;;;;;29.49;42.91;96497.75;4963775;28;20051;-62
2022/05/28 10:33:44;;;;;;;9.68;7.60;;;;;;;29.55;42.56;96500.63;4963248;28;20054;-63
2022/05/28 10:36:15;;;;;;;12.13;7.55;;;;;;;29.78;42.74;96484.44;4963142;28;20177;-60
2022/05/28 10:38:43;;;;;;;43.00;10.90;;;;;;;30.09;42.86;96487.19;4962964;28;20114;-63
2022/05/28 10:41:26;;;;;;;12.25;7.85;;;;;;;30.44;42.06;96482.69;4977148;28;20425;-61
2022/05/28 10:43:53;;;;;;;10.43;8.53;;;;;;;30.52;42.41;96458.00;4962697;28;20058;-63
2022/05/28 10:46:31;;;;;;;12.68;7.70;;;;;;;31.06;41.24;96489.28;4963256;28;20313;-60
2022/05/28 10:49:17;;;;;;;14.25;7.90;;;;;;;30.68;42.15;96494.41;4978724;28;20064;-62
2022/05/28 10:51:59;;;;;;;8.88;7.53;;;;;;;30.77;42.22;96497.06;4979150;28;20076;-60
2022/05/28 10:54:49;;;;;;;15.80;7.75;;;;;;;30.97;42.47;96486.69;4979427;28;20126;-63
2022/05/28 10:57:28;;;;;;;13.30;8.48;;;;;;;31.41;41.87;96492.44;4963078;28;20441;-62
2022/05/28 10:59:54;;;;;;;8.73;7.78;;;;;;;31.37;41.27;96491.91;4978941;28;20058;-63
2022/05/28 11:03:02;;;;;;;9.48;8.00;;;;;;;31.48;41.07;96492.69;4978526;28;20058;-64
2022/05/28 11:06:02;;;;;;;11.68;7.70;;;;;;;31.61;40.92;96472.88;4967490;28;20055;-65
2022/05/28 11:08:47;;;;;;;9.93;8.02;;;;;;;31.39;41.86;96489.31;4943718;28;20062;-65
2022/05/28 11:11:17;;;;;;;18.95;8.05;;;;;;;31.21;41.79;96486.94;4951842;28;20545;-61
2022/05/28 11:14:08;;;;;;;14.40;8.73;;;;;;;31.33;42.04;96537.19;4959976;28;20087;-66
2022/05/28 11:16:47;;;;;;;30.50;9.50;;;;;;;31.14;42.15;96498.91;4952204;28;20042;-65
2022/05/28 11:19:23;;;;;;;45.78;11.05;;;;;;;30.98;40.58;96502.53;4955328;28;20509;-59
2022/05/28 11:22:16;;;;;;;21.48;8.57;;;;;;;30.82;39.56;96499.16;4978489;28;20086;-61
2022/05/28 11:25:05;;;;;;;21.80;8.30;;;;;;;30.31;40.27;96482.38;4955156;28;20085;-66
2022/05/28 11:27:41;;;;;;;10.23;8.05;;;;;;;30.35;39.56;96502.91;4980867;28;20133;-64
2022/05/28 11:32:24;;;;;;;32.05;8.82;;;;;;;29.76;40.48;96467.81;5080157;27;1300219;-61
2022/05/28 11:34:57;;;;;;;24.83;9.35;;;;;;;30.02;39.97;96491.31;5100416;27;20540;-59
2022/05/28 11:38:05;;;;;;;20.27;9.13;;;;;;;29.78;40.76;96484.44;5098091;27;20658;-60
2022/05/28 11:40:44;;;;;;;11.82;8.70;;;;;;;30.07;41.00;96473.41;5055680;28;20063;-64
2022/05/28 11:43:34;;;;;;;11.07;8.40;;;;;;;30.12;42.41;96477.59;5055814;28;20094;-63
2022/05/28 11:46:17;;;;;;;16.70;8.90;;;;;;;29.58;43.85;96453.16;5057439;27;20055;-61
2022/05/28 11:51:52;;;;;;;10.18;8.00;;;;;;;29.83;43.17;96458.00;5107241;27;20418;-61
2022/05/28 11:54:19;;;;;;;15.35;8.73;;;;;;;29.67;43.94;96473.72;5100703;28;20131;-61